sensor_id;sensor_type;location;lat;lon;timestamp;P1;durP1;ratioP1;P2;durP2;ratioP2
9848;SDS011;4963;51.444;6.528;2023-05-09T00:01:55;13.57;;;11.57;;
9848;SDS011;4963;51.444;6.528;2023-05-09T00:04:23;11.82;;;10.60;;
9848;SDS011;4963;51.444;6.528;2023-05-09T00:06:50;12.02;;;10.77;;
9848;SDS011;4963;51.444;6.528;2023-05-09T00:09:16;14.10;;;11.68;;
9848;SDS011;4963;51.444;6.528;2023-05-09T00:11:43;11.80;;;10.65;;
9848;SDS011;4963;51.444;6.528;2023-05-09T00:14:10;11.88;;;10.75;;
9848;SDS011;4963;51.444;6.528;2023-05-09T00:16:37;12.68;;;11.48;;
9848;SDS011;4963;51.444;6.528;2023-05-09T00:19:06;13.35;;;11.65;;
9848;SDS011;4963;51.444;6.528;2023-05-09T00:21:32;12.48;;;11.27;;
9848;SDS011;4963;51.444;6.528;2023-05-09T00:23:59;13.00;;;11.65;;
9848;SDS011;4963;51.444;6.528;2023-05-09T00:26:26;14.63;;;11.63;;
9848;SDS011;4963;51.444;6.528;2023-05-09T00:28:53;14.48;;;12.98;;
9848;SDS011;4963;51.444;6.528;2023-05-09T00:31:20;12.60;;;11.40;;
9848;SDS011;4963;51.444;6.528;2023-05-09T00:33:46;12.68;;;11.52;;
9848;SDS011;4963;51.444;6.528;2023-05-09T00:36:15;12.77;;;11.52;;
9848;SDS011;4963;51.444;6.528;2023-05-09T00:38:41;13.68;;;12.30;;
9848;SDS011;4963;51.444;6.528;2023-05-09T00:41:08;12.95;;;11.60;;
9848;SDS011;4963;51.444;6.528;2023-05-09T00:43:35;12.80;;;11.55;;
9848;SDS011;4963;51.444;6.528;2023-05-09T00:46:01;12.05;;;10.68;;
9848;SDS011;4963;51.444;6.528;2023-05-09T00:48:29;12.48;;;11.27;;
9848;SDS011;4963;51.444;6.528;2023-05-09T00:50:55;12.35;;;11.13;;
9848;SDS011;4963;51.444;6.528;2023-05-09T00:53:24;12.95;;;11.75;;
9848;SDS011;4963;51.444;6.528;2023-05-09T00:55:52;12.98;;;11.68;;
9848;SDS011;4963;51.444;6.528;2023-05-09T00:58:20;13.98;;;12.57;;
9848;SDS011;4963;51.444;6.528;2023-05-09T01:00:47;13.48;;;12.13;;
9848;SDS011;4963;51.444;6.528;2023-05-09T01:03:14;13.73;;;12.35;;
9848;SDS011;4963;51.444;6.528;2023-05-09T01:05:43;15.10;;;12.10;;
9848;SDS011;4963;51.444;6.528;2023-05-09T01:08:36;15.13;;;13.57;;
9848;SDS011;4963;51.444;6.528;2023-05-09T01:11:10;14.35;;;12.93;;
9848;SDS011;4963;51.444;6.528;2023-05-09T01:13:43;14.55;;;13.05;;
9848;SDS011;4963;51.444;6.528;2023-05-09T01:16:22;18.75;;;15.48;;
9848;SDS011;4963;51.444;6.528;2023-05-09T01:18:58;28.20;;;23.35;;
9848;SDS011;4963;51.444;6.528;2023-05-09T01:21:31;29.02;;;23.15;;
9848;SDS011;4963;51.444;6.528;2023-05-09T01:24:07;27.35;;;23.08;;
9848;SDS011;4963;51.444;6.528;2023-05-09T01:26:51;30.23;;;22.83;;
9848;SDS011;4963;51.444;6.528;2023-05-09T01:29:35;31.75;;;26.45;;
9848;SDS011;4963;51.444;6.528;2023-05-09T01:32:06;31.13;;;24.42;;
9848;SDS011;4963;51.444;6.528;2023-05-09T01:34:35;36.38;;;27.23;;
9848;SDS011;4963;51.444;6.528;2023-05-09T01:37:05;32.03;;;25.48;;
9848;SDS011;4963;51.444;6.528;2023-05-09T01:39:32;38.58;;;29.75;;
9848;SDS011;4963;51.444;6.528;2023-05-09T01:42:02;39.03;;;28.75;;
9848;SDS011;4963;51.444;6.528;2023-05-09T01:44:32;40.38;;;29.38;;
9848;SDS011;4963;51.444;6.528;2023-05-09T01:47:03;42.42;;;31.75;;
9848;SDS011;4963;51.444;6.528;2023-05-09T01:49:32;38.15;;;29.75;;
9848;SDS011;4963;51.444;6.528;2023-05-09T01:52:02;34.95;;;28.48;;
9848;SDS011;4963;51.444;6.528;2023-05-09T01:54:30;34.53;;;27.75;;
9848;SDS011;4963;51.444;6.528;2023-05-09T01:56:58;36.53;;;28.55;;
9848;SDS011;4963;51.444;6.528;2023-05-09T01:59:26;38.60;;;27.60;;
9848;SDS011;4963;51.444;6.528;2023-05-09T02:01:55;38.65;;;29.58;;
9848;SDS011;4963;51.444;6.528;2023-05-09T02:04:23;36.83;;;29.98;;
9848;SDS011;4963;51.444;6.528;2023-05-09T02:06:50;39.35;;;30.67;;
9848;SDS011;4963;51.444;6.528;2023-05-09T02:09:19;39.30;;;30.67;;
9848;SDS011;4963;51.444;6.528;2023-05-09T02:11:46;39.90;;;30.10;;
9848;SDS011;4963;51.444;6.528;2023-05-09T02:14:13;42.80;;;30.23;;
9848;SDS011;4963;51.444;6.528;2023-05-09T02:16:40;42.88;;;31.75;;
9848;SDS011;4963;51.444;6.528;2023-05-09T02:19:08;41.63;;;32.92;;
9848;SDS011;4963;51.444;6.528;2023-05-09T02:21:35;46.38;;;32.40;;
9848;SDS011;4963;51.444;6.528;2023-05-09T02:24:02;45.10;;;34.35;;
9848;SDS011;4963;51.444;6.528;2023-05-09T02:26:29;42.78;;;31.42;;
9848;SDS011;4963;51.444;6.528;2023-05-09T02:28:56;45.90;;;33.80;;
9848;SDS011;4963;51.444;6.528;2023-05-09T02:31:24;44.17;;;34.20;;
9848;SDS011;4963;51.444;6.528;2023-05-09T02:33:53;43.88;;;33.13;;
9848;SDS011;4963;51.444;6.528;2023-05-09T02:36:22;49.50;;;36.95;;
9848;SDS011;4963;51.444;6.528;2023-05-09T02:38:49;50.65;;;36.50;;
9848;SDS011;4963;51.444;6.528;2023-05-09T02:41:16;50.05;;;35.90;;
9848;SDS011;4963;51.444;6.528;2023-05-09T02:43:43;46.45;;;35.75;;
9848;SDS011;4963;51.444;6.528;2023-05-09T02:46:10;49.20;;;35.85;;
9848;SDS011;4963;51.444;6.528;2023-05-09T02:48:36;50.50;;;37.45;;
9848;SDS011;4963;51.444;6.528;2023-05-09T02:51:03;49.53;;;36.58;;
9848;SDS011;4963;51.444;6.528;2023-05-09T02:53:31;51.63;;;38.13;;
9848;SDS011;4963;51.444;6.528;2023-05-09T02:55:58;55.45;;;38.83;;
9848;SDS011;4963;51.444;6.528;2023-05-09T02:58:25;53.40;;;38.05;;
9848;SDS011;4963;51.444;6.528;2023-05-09T03:00:51;51.55;;;37.55;;
9848;SDS011;4963;51.444;6.528;2023-05-09T03:03:18;57.38;;;40.70;;
9848;SDS011;4963;51.444;6.528;2023-05-09T03:05:46;51.58;;;37.10;;
9848;SDS011;4963;51.444;6.528;2023-05-09T03:08:12;53.70;;;37.78;;
9848;SDS011;4963;51.444;6.528;2023-05-09T03:10:41;53.75;;;38.42;;
9848;SDS011;4963;51.444;6.528;2023-05-09T03:13:08;51.00;;;37.78;;
9848;SDS011;4963;51.444;6.528;2023-05-09T03:15:35;55.92;;;37.17;;
9848;SDS011;4963;51.444;6.528;2023-05-09T03:18:01;53.95;;;38.05;;
9848;SDS011;4963;51.444;6.528;2023-05-09T03:20:28;57.03;;;38.97;;
9848;SDS011;4963;51.444;6.528;2023-05-09T03:22:55;54.65;;;38.80;;
9848;SDS011;4963;51.444;6.528;2023-05-09T03:25:22;58.83;;;40.83;;
9848;SDS011;4963;51.444;6.528;2023-05-09T03:27:51;59.00;;;40.45;;
9848;SDS011;4963;51.444;6.528;2023-05-09T03:30:18;53.30;;;37.05;;
9848;SDS011;4963;51.444;6.528;2023-05-09T03:32:45;58.75;;;41.20;;
9848;SDS011;4963;51.444;6.528;2023-05-09T03:35:11;56.45;;;38.70;;
9848;SDS011;4963;51.444;6.528;2023-05-09T03:37:38;57.17;;;40.88;;
9848;SDS011;4963;51.444;6.528;2023-05-09T03:40:05;56.85;;;39.05;;
9848;SDS011;4963;51.444;6.528;2023-05-09T03:42:33;56.17;;;39.83;;
9848;SDS011;4963;51.444;6.528;2023-05-09T03:45:01;56.70;;;40.30;;
9848;SDS011;4963;51.444;6.528;2023-05-09T03:47:28;55.40;;;39.67;;
9848;SDS011;4963;51.444;6.528;2023-05-09T03:49:55;55.72;;;38.40;;
9848;SDS011;4963;51.444;6.528;2023-05-09T03:52:22;57.97;;;38.95;;
9848;SDS011;4963;51.444;6.528;2023-05-09T03:54:48;59.97;;;41.72;;
9848;SDS011;4963;51.444;6.528;2023-05-09T03:57:15;59.10;;;40.85;;
9848;SDS011;4963;51.444;6.528;2023-05-09T03:59:42;62.85;;;41.78;;
9848;SDS011;4963;51.444;6.528;2023-05-09T04:02:10;55.78;;;39.58;;
9848;SDS011;4963;51.444;6.528;2023-05-09T04:04:37;58.10;;;40.53;;
9848;SDS011;4963;51.444;6.528;2023-05-09T04:07:03;55.53;;;38.15;;
9848;SDS011;4963;51.444;6.528;2023-05-09T04:09:30;57.78;;;40.85;;
9848;SDS011;4963;51.444;6.528;2023-05-09T04:11:57;61.10;;;40.95;;
9848;SDS011;4963;51.444;6.528;2023-05-09T04:14:24;64.38;;;43.30;;
9848;SDS011;4963;51.444;6.528;2023-05-09T04:16:51;63.65;;;41.85;;
9848;SDS011;4963;51.444;6.528;2023-05-09T04:19:19;64.55;;;43.30;;
9848;SDS011;4963;51.444;6.528;2023-05-09T04:21:45;65.35;;;43.92;;
9848;SDS011;4963;51.444;6.528;2023-05-09T04:24:12;60.88;;;40.30;;
9848;SDS011;4963;51.444;6.528;2023-05-09T04:26:39;55.25;;;39.08;;
9848;SDS011;4963;51.444;6.528;2023-05-09T04:29:06;58.17;;;41.67;;
9848;SDS011;4963;51.444;6.528;2023-05-09T04:31:33;58.45;;;41.10;;
9848;SDS011;4963;51.444;6.528;2023-05-09T04:34:00;65.70;;;43.25;;
9848;SDS011;4963;51.444;6.528;2023-05-09T04:36:28;54.70;;;39.33;;
9848;SDS011;4963;51.444;6.528;2023-05-09T04:38:55;61.60;;;41.65;;
9848;SDS011;4963;51.444;6.528;2023-05-09T04:41:22;64.47;;;43.63;;
9848;SDS011;4963;51.444;6.528;2023-05-09T04:43:49;61.53;;;41.10;;
9848;SDS011;4963;51.444;6.528;2023-05-09T04:46:16;63.58;;;42.72;;
9848;SDS011;4963;51.444;6.528;2023-05-09T04:48:43;60.40;;;41.28;;
9848;SDS011;4963;51.444;6.528;2023-05-09T04:51:09;60.72;;;41.22;;
9848;SDS011;4963;51.444;6.528;2023-05-09T04:53:37;55.75;;;39.95;;
9848;SDS011;4963;51.444;6.528;2023-05-09T04:56:04;56.58;;;38.75;;
9848;SDS011;4963;51.444;6.528;2023-05-09T04:58:31;59.10;;;39.50;;
9848;SDS011;4963;51.444;6.528;2023-05-09T05:01:02;61.35;;;41.13;;
9848;SDS011;4963;51.444;6.528;2023-05-09T05:03:29;61.00;;;41.88;;
9848;SDS011;4963;51.444;6.528;2023-05-09T05:05:56;58.63;;;39.28;;
9848;SDS011;4963;51.444;6.528;2023-05-09T05:08:23;55.40;;;38.20;;
9848;SDS011;4963;51.444;6.528;2023-05-09T05:10:51;58.20;;;38.53;;
9848;SDS011;4963;51.444;6.528;2023-05-09T05:13:17;52.30;;;36.63;;
9848;SDS011;4963;51.444;6.528;2023-05-09T05:15:45;54.45;;;38.17;;
9848;SDS011;4963;51.444;6.528;2023-05-09T05:18:12;51.35;;;35.47;;
9848;SDS011;4963;51.444;6.528;2023-05-09T05:20:38;52.72;;;35.58;;
9848;SDS011;4963;51.444;6.528;2023-05-09T05:23:05;49.47;;;35.03;;
9848;SDS011;4963;51.444;6.528;2023-05-09T05:25:32;48.85;;;35.10;;
9848;SDS011;4963;51.444;6.528;2023-05-09T05:28:00;49.53;;;34.08;;
9848;SDS011;4963;51.444;6.528;2023-05-09T05:30:27;46.55;;;32.53;;
9848;SDS011;4963;51.444;6.528;2023-05-09T05:32:54;44.30;;;32.20;;
9848;SDS011;4963;51.444;6.528;2023-05-09T05:35:21;44.05;;;32.95;;
9848;SDS011;4963;51.444;6.528;2023-05-09T05:37:48;40.83;;;30.15;;
9848;SDS011;4963;51.444;6.528;2023-05-09T05:40:15;42.05;;;31.52;;
9848;SDS011;4963;51.444;6.528;2023-05-09T05:42:42;47.78;;;31.02;;
9848;SDS011;4963;51.444;6.528;2023-05-09T05:45:12;43.33;;;31.52;;
9848;SDS011;4963;51.444;6.528;2023-05-09T05:47:38;44.95;;;30.42;;
9848;SDS011;4963;51.444;6.528;2023-05-09T05:50:06;43.03;;;30.50;;
9848;SDS011;4963;51.444;6.528;2023-05-09T05:52:35;45.22;;;30.77;;
9848;SDS011;4963;51.444;6.528;2023-05-09T05:55:02;42.20;;;30.00;;
9848;SDS011;4963;51.444;6.528;2023-05-09T05:57:29;42.33;;;29.58;;
9848;SDS011;4963;51.444;6.528;2023-05-09T05:59:56;42.85;;;30.20;;
9848;SDS011;4963;51.444;6.528;2023-05-09T06:02:24;38.67;;;28.65;;
9848;SDS011;4963;51.444;6.528;2023-05-09T06:04:51;40.80;;;30.38;;
9848;SDS011;4963;51.444;6.528;2023-05-09T06:07:18;38.05;;;28.60;;
9848;SDS011;4963;51.444;6.528;2023-05-09T06:09:45;40.80;;;28.13;;
9848;SDS011;4963;51.444;6.528;2023-05-09T06:12:11;38.73;;;29.10;;
9848;SDS011;4963;51.444;6.528;2023-05-09T06:14:40;40.27;;;26.63;;
9848;SDS011;4963;51.444;6.528;2023-05-09T06:17:07;33.63;;;25.42;;
9848;SDS011;4963;51.444;6.528;2023-05-09T06:19:35;34.00;;;24.38;;
9848;SDS011;4963;51.444;6.528;2023-05-09T06:22:02;32.25;;;25.13;;
9848;SDS011;4963;51.444;6.528;2023-05-09T06:24:29;31.40;;;24.25;;
9848;SDS011;4963;51.444;6.528;2023-05-09T06:26:55;36.03;;;24.00;;
9848;SDS011;4963;51.444;6.528;2023-05-09T06:29:22;30.85;;;23.08;;
9848;SDS011;4963;51.444;6.528;2023-05-09T06:31:49;31.45;;;24.38;;
9848;SDS011;4963;51.444;6.528;2023-05-09T06:34:16;30.95;;;24.63;;
9848;SDS011;4963;51.444;6.528;2023-05-09T06:36:44;35.40;;;25.63;;
9848;SDS011;4963;51.444;6.528;2023-05-09T06:39:11;35.30;;;25.73;;
9848;SDS011;4963;51.444;6.528;2023-05-09T06:41:37;31.42;;;23.58;;
9848;SDS011;4963;51.444;6.528;2023-05-09T06:44:04;33.63;;;23.95;;
9848;SDS011;4963;51.444;6.528;2023-05-09T06:46:31;30.17;;;22.85;;
9848;SDS011;4963;51.444;6.528;2023-05-09T06:48:58;28.13;;;22.60;;
9848;SDS011;4963;51.444;6.528;2023-05-09T06:51:25;29.67;;;22.77;;
9848;SDS011;4963;51.444;6.528;2023-05-09T06:53:53;27.05;;;21.67;;
9848;SDS011;4963;51.444;6.528;2023-05-09T06:56:20;30.33;;;22.90;;
9848;SDS011;4963;51.444;6.528;2023-05-09T06:58:48;29.05;;;23.35;;
9848;SDS011;4963;51.444;6.528;2023-05-09T07:01:15;33.47;;;24.35;;
9848;SDS011;4963;51.444;6.528;2023-05-09T07:03:42;33.42;;;25.98;;
9848;SDS011;4963;51.444;6.528;2023-05-09T07:06:11;38.35;;;27.00;;
9848;SDS011;4963;51.444;6.528;2023-05-09T07:08:37;39.30;;;26.95;;
9848;SDS011;4963;51.444;6.528;2023-05-09T07:11:06;39.08;;;27.48;;
9848;SDS011;4963;51.444;6.528;2023-05-09T07:13:33;42.67;;;29.67;;
9848;SDS011;4963;51.444;6.528;2023-05-09T07:15:59;34.47;;;26.35;;
9848;SDS011;4963;51.444;6.528;2023-05-09T07:18:26;42.50;;;31.45;;
9848;SDS011;4963;51.444;6.528;2023-05-09T07:20:53;40.45;;;30.92;;
9848;SDS011;4963;51.444;6.528;2023-05-09T07:23:20;43.00;;;31.20;;
9848;SDS011;4963;51.444;6.528;2023-05-09T07:25:47;43.97;;;31.58;;
9848;SDS011;4963;51.444;6.528;2023-05-09T07:28:15;41.67;;;32.08;;
9848;SDS011;4963;51.444;6.528;2023-05-09T07:30:43;41.70;;;30.27;;
9848;SDS011;4963;51.444;6.528;2023-05-09T07:33:09;39.25;;;30.75;;
9848;SDS011;4963;51.444;6.528;2023-05-09T07:35:36;45.65;;;32.58;;
9848;SDS011;4963;51.444;6.528;2023-05-09T07:38:03;40.72;;;31.92;;
9848;SDS011;4963;51.444;6.528;2023-05-09T07:40:30;38.88;;;29.52;;
9848;SDS011;4963;51.444;6.528;2023-05-09T07:42:57;40.88;;;29.65;;
9848;SDS011;4963;51.444;6.528;2023-05-09T07:45:25;42.33;;;33.17;;
9848;SDS011;4963;51.444;6.528;2023-05-09T07:47:52;41.10;;;33.15;;
9848;SDS011;4963;51.444;6.528;2023-05-09T07:50:19;40.60;;;31.05;;
9848;SDS011;4963;51.444;6.528;2023-05-09T07:52:47;35.80;;;29.77;;
9848;SDS011;4963;51.444;6.528;2023-05-09T07:55:15;36.88;;;29.50;;
9848;SDS011;4963;51.444;6.528;2023-05-09T07:57:42;37.85;;;29.35;;
9848;SDS011;4963;51.444;6.528;2023-05-09T08:00:09;34.92;;;27.45;;
9848;SDS011;4963;51.444;6.528;2023-05-09T08:02:38;30.35;;;24.73;;
9848;SDS011;4963;51.444;6.528;2023-05-09T08:05:05;30.67;;;24.83;;
9848;SDS011;4963;51.444;6.528;2023-05-09T08:07:35;29.50;;;24.13;;
9848;SDS011;4963;51.444;6.528;2023-05-09T08:10:02;25.17;;;22.13;;
9848;SDS011;4963;51.444;6.528;2023-05-09T08:12:29;24.50;;;19.45;;
9848;SDS011;4963;51.444;6.528;2023-05-09T08:14:56;19.20;;;16.20;;
9848;SDS011;4963;51.444;6.528;2023-05-09T08:17:23;19.90;;;16.73;;
9848;SDS011;4963;51.444;6.528;2023-05-09T08:19:51;19.55;;;16.98;;
9848;SDS011;4963;51.444;6.528;2023-05-09T08:22:18;19.83;;;15.50;;
9848;SDS011;4963;51.444;6.528;2023-05-09T08:24:46;15.88;;;13.45;;
9848;SDS011;4963;51.444;6.528;2023-05-09T08:27:13;13.85;;;11.13;;
9848;SDS011;4963;51.444;6.528;2023-05-09T08:29:39;13.85;;;11.35;;
9848;SDS011;4963;51.444;6.528;2023-05-09T08:32:06;14.40;;;12.23;;
9848;SDS011;4963;51.444;6.528;2023-05-09T08:34:33;14.55;;;12.48;;
9848;SDS011;4963;51.444;6.528;2023-05-09T08:37:02;15.32;;;12.70;;
9848;SDS011;4963;51.444;6.528;2023-05-09T08:39:29;15.32;;;12.85;;
9848;SDS011;4963;51.444;6.528;2023-05-09T08:41:59;15.05;;;12.63;;
9848;SDS011;4963;51.444;6.528;2023-05-09T08:44:27;18.20;;;13.15;;
9848;SDS011;4963;51.444;6.528;2023-05-09T08:46:57;20.83;;;13.45;;
9848;SDS011;4963;51.444;6.528;2023-05-09T08:49:25;12.82;;;11.00;;
9848;SDS011;4963;51.444;6.528;2023-05-09T08:51:53;14.32;;;12.10;;
9848;SDS011;4963;51.444;6.528;2023-05-09T08:54:21;15.57;;;13.43;;
9848;SDS011;4963;51.444;6.528;2023-05-09T08:56:49;19.30;;;13.18;;
9848;SDS011;4963;51.444;6.528;2023-05-09T08:59:16;13.32;;;11.65;;
9848;SDS011;4963;51.444;6.528;2023-05-09T09:01:43;14.23;;;11.45;;
9848;SDS011;4963;51.444;6.528;2023-05-09T09:04:11;11.73;;;9.80;;
9848;SDS011;4963;51.444;6.528;2023-05-09T09:06:38;12.48;;;10.10;;
9848;SDS011;4963;51.444;6.528;2023-05-09T09:09:06;16.05;;;10.35;;
9848;SDS011;4963;51.444;6.528;2023-05-09T09:11:35;12.38;;;9.43;;
9848;SDS011;4963;51.444;6.528;2023-05-09T09:14:05;13.55;;;10.40;;
9848;SDS011;4963;51.444;6.528;2023-05-09T09:16:36;11.18;;;9.13;;
9848;SDS011;4963;51.444;6.528;2023-05-09T09:19:06;13.38;;;8.43;;
9848;SDS011;4963;51.444;6.528;2023-05-09T09:21:38;12.93;;;9.52;;
9848;SDS011;4963;51.444;6.528;2023-05-09T09:24:07;15.90;;;9.07;;
9848;SDS011;4963;51.444;6.528;2023-05-09T09:26:38;13.70;;;9.65;;
9848;SDS011;4963;51.444;6.528;2023-05-09T09:29:11;16.15;;;9.45;;
9848;SDS011;4963;51.444;6.528;2023-05-09T09:31:39;14.63;;;9.18;;
9848;SDS011;4963;51.444;6.528;2023-05-09T09:34:11;13.98;;;10.30;;
9848;SDS011;4963;51.444;6.528;2023-05-09T09:36:39;11.73;;;8.80;;
9848;SDS011;4963;51.444;6.528;2023-05-09T09:39:06;11.55;;;7.90;;
9848;SDS011;4963;51.444;6.528;2023-05-09T09:41:33;10.85;;;8.82;;
9848;SDS011;4963;51.444;6.528;2023-05-09T09:44:09;12.18;;;8.27;;
9848;SDS011;4963;51.444;6.528;2023-05-09T09:46:43;10.68;;;8.00;;
9848;SDS011;4963;51.444;6.528;2023-05-09T09:49:11;12.90;;;9.55;;
9848;SDS011;4963;51.444;6.528;2023-05-09T09:51:39;10.93;;;7.97;;
9848;SDS011;4963;51.444;6.528;2023-05-09T09:54:06;12.00;;;7.70;;
9848;SDS011;4963;51.444;6.528;2023-05-09T09:56:37;12.38;;;8.07;;
9848;SDS011;4963;51.444;6.528;2023-05-09T09:59:09;11.63;;;7.50;;
9848;SDS011;4963;51.444;6.528;2023-05-09T10:04:23;10.15;;;6.63;;
9848;SDS011;4963;51.444;6.528;2023-05-09T10:06:52;10.77;;;7.38;;
9848;SDS011;4963;51.444;6.528;2023-05-09T10:09:20;7.80;;;6.00;;
9848;SDS011;4963;51.444;6.528;2023-05-09T10:11:49;10.57;;;6.38;;
9848;SDS011;4963;51.444;6.528;2023-05-09T10:14:19;11.32;;;7.22;;
9848;SDS011;4963;51.444;6.528;2023-05-09T10:16:47;10.75;;;7.25;;
9848;SDS011;4963;51.444;6.528;2023-05-09T10:19:16;9.95;;;7.32;;
9848;SDS011;4963;51.444;6.528;2023-05-09T10:21:46;10.65;;;8.25;;
9848;SDS011;4963;51.444;6.528;2023-05-09T10:24:17;11.45;;;8.30;;
9848;SDS011;4963;51.444;6.528;2023-05-09T10:26:50;13.68;;;9.43;;
9848;SDS011;4963;51.444;6.528;2023-05-09T10:29:22;11.88;;;8.90;;
9848;SDS011;4963;51.444;6.528;2023-05-09T10:31:53;8.25;;;7.13;;
9848;SDS011;4963;51.444;6.528;2023-05-09T10:34:24;11.68;;;9.30;;
9848;SDS011;4963;51.444;6.528;2023-05-09T10:36:54;11.30;;;7.75;;
9848;SDS011;4963;51.444;6.528;2023-05-09T10:39:24;11.93;;;8.32;;
9848;SDS011;4963;51.444;6.528;2023-05-09T10:41:52;10.77;;;7.18;;
9848;SDS011;4963;51.444;6.528;2023-05-09T10:44:21;11.57;;;7.25;;
9848;SDS011;4963;51.444;6.528;2023-05-09T10:46:49;10.38;;;7.22;;
9848;SDS011;4963;51.444;6.528;2023-05-09T10:49:16;7.85;;;7.00;;
9848;SDS011;4963;51.444;6.528;2023-05-09T10:51:43;8.93;;;7.10;;
9848;SDS011;4963;51.444;6.528;2023-05-09T10:54:12;8.70;;;7.32;;
9848;SDS011;4963;51.444;6.528;2023-05-09T10:56:40;10.05;;;7.22;;
9848;SDS011;4963;51.444;6.528;2023-05-09T11:02:01;11.95;;;7.45;;
9848;SDS011;4963;51.444;6.528;2023-05-09T11:04:28;7.10;;;5.80;;
9848;SDS011;4963;51.444;6.528;2023-05-09T11:06:56;7.05;;;5.97;;
9848;SDS011;4963;51.444;6.528;2023-05-09T11:09:25;6.60;;;5.05;;
9848;SDS011;4963;51.444;6.528;2023-05-09T11:11:54;6.55;;;5.75;;
9848;SDS011;4963;51.444;6.528;2023-05-09T11:14:28;11.00;;;5.43;;
9848;SDS011;4963;51.444;6.528;2023-05-09T11:16:58;7.15;;;5.93;;
9848;SDS011;4963;51.444;6.528;2023-05-09T11:19:32;8.25;;;5.97;;
9848;SDS011;4963;51.444;6.528;2023-05-09T11:22:00;8.10;;;6.32;;
9848;SDS011;4963;51.444;6.528;2023-05-09T11:24:30;6.72;;;5.40;;
9848;SDS011;4963;51.444;6.528;2023-05-09T11:26:57;9.52;;;6.13;;
9848;SDS011;4963;51.444;6.528;2023-05-09T11:29:25;10.00;;;5.53;;
9848;SDS011;4963;51.444;6.528;2023-05-09T11:32:06;4.68;;;4.25;;
9848;SDS011;4963;51.444;6.528;2023-05-09T11:34:33;6.70;;;5.35;;
9848;SDS011;4963;51.444;6.528;2023-05-09T11:37:06;7.15;;;4.78;;
9848;SDS011;4963;51.444;6.528;2023-05-09T11:39:41;6.50;;;4.85;;
9848;SDS011;4963;51.444;6.528;2023-05-09T11:42:21;7.00;;;4.88;;
9848;SDS011;4963;51.444;6.528;2023-05-09T11:44:49;6.43;;;4.70;;
9848;SDS011;4963;51.444;6.528;2023-05-09T11:47:18;4.93;;;4.43;;
9848;SDS011;4963;51.444;6.528;2023-05-09T11:49:45;5.35;;;4.85;;
9848;SDS011;4963;51.444;6.528;2023-05-09T11:52:13;4.95;;;4.40;;
9848;SDS011;4963;51.444;6.528;2023-05-09T11:54:40;6.88;;;4.72;;
9848;SDS011;4963;51.444;6.528;2023-05-09T11:57:07;6.38;;;4.43;;
9848;SDS011;4963;51.444;6.528;2023-05-09T11:59:34;7.22;;;4.90;;
9848;SDS011;4963;51.444;6.528;2023-05-09T12:02:02;9.18;;;6.93;;
9848;SDS011;4963;51.444;6.528;2023-05-09T12:04:31;6.53;;;5.72;;
9848;SDS011;4963;51.444;6.528;2023-05-09T12:06:59;9.90;;;6.15;;
9848;SDS011;4963;51.444;6.528;2023-05-09T12:09:28;8.52;;;6.07;;
9848;SDS011;4963;51.444;6.528;2023-05-09T12:11:56;7.25;;;5.63;;
9848;SDS011;4963;51.444;6.528;2023-05-09T12:14:27;7.20;;;5.47;;
9848;SDS011;4963;51.444;6.528;2023-05-09T12:16:54;7.35;;;6.03;;
9848;SDS011;4963;51.444;6.528;2023-05-09T12:19:21;6.78;;;5.93;;
9848;SDS011;4963;51.444;6.528;2023-05-09T12:21:54;7.38;;;5.60;;
9848;SDS011;4963;51.444;6.528;2023-05-09T12:24:21;6.35;;;5.75;;
9848;SDS011;4963;51.444;6.528;2023-05-09T12:26:50;6.95;;;5.30;;
9848;SDS011;4963;51.444;6.528;2023-05-09T12:29:17;9.48;;;6.13;;
9848;SDS011;4963;51.444;6.528;2023-05-09T12:31:44;8.00;;;6.25;;
9848;SDS011;4963;51.444;6.528;2023-05-09T12:34:12;7.07;;;5.13;;
9848;SDS011;4963;51.444;6.528;2023-05-09T12:36:39;7.30;;;6.60;;
9848;SDS011;4963;51.444;6.528;2023-05-09T12:39:15;11.63;;;7.30;;
9848;SDS011;4963;51.444;6.528;2023-05-09T12:41:45;13.80;;;9.68;;
9848;SDS011;4963;51.444;6.528;2023-05-09T12:44:22;13.45;;;8.75;;
9848;SDS011;4963;51.444;6.528;2023-05-09T12:46:52;12.25;;;8.70;;
9848;SDS011;4963;51.444;6.528;2023-05-09T12:49:24;9.95;;;7.35;;
9848;SDS011;4963;51.444;6.528;2023-05-09T12:51:52;15.93;;;8.20;;
9848;SDS011;4963;51.444;6.528;2023-05-09T12:54:21;12.25;;;8.55;;
9848;SDS011;4963;51.444;6.528;2023-05-09T12:56:49;8.57;;;7.68;;
9848;SDS011;4963;51.444;6.528;2023-05-09T12:59:21;9.93;;;8.07;;
9848;SDS011;4963;51.444;6.528;2023-05-09T13:01:50;12.00;;;8.82;;
9848;SDS011;4963;51.444;6.528;2023-05-09T13:04:19;9.45;;;8.00;;
9848;SDS011;4963;51.444;6.528;2023-05-09T13:06:47;10.50;;;9.05;;
9848;SDS011;4963;51.444;6.528;2023-05-09T13:09:14;11.27;;;8.38;;
9848;SDS011;4963;51.444;6.528;2023-05-09T13:11:43;8.68;;;7.78;;
9848;SDS011;4963;51.444;6.528;2023-05-09T13:14:10;9.55;;;7.95;;
9848;SDS011;4963;51.444;6.528;2023-05-09T13:16:37;9.15;;;8.30;;
9848;SDS011;4963;51.444;6.528;2023-05-09T13:19:04;8.65;;;7.72;;
9848;SDS011;4963;51.444;6.528;2023-05-09T13:21:31;10.02;;;7.47;;
9848;SDS011;4963;51.444;6.528;2023-05-09T13:23:59;8.38;;;7.53;;
9848;SDS011;4963;51.444;6.528;2023-05-09T13:26:25;12.93;;;7.80;;
9848;SDS011;4963;51.444;6.528;2023-05-09T13:28:54;8.45;;;7.40;;
9848;SDS011;4963;51.444;6.528;2023-05-09T13:31:21;8.57;;;7.65;;
9848;SDS011;4963;51.444;6.528;2023-05-09T13:33:48;8.32;;;7.43;;
9848;SDS011;4963;51.444;6.528;2023-05-09T13:36:16;9.48;;;7.85;;
9848;SDS011;4963;51.444;6.528;2023-05-09T13:38:42;13.10;;;8.57;;
9848;SDS011;4963;51.444;6.528;2023-05-09T13:41:09;10.00;;;8.10;;
9848;SDS011;4963;51.444;6.528;2023-05-09T13:43:38;9.70;;;8.75;;
9848;SDS011;4963;51.444;6.528;2023-05-09T13:46:07;9.07;;;7.65;;
9848;SDS011;4963;51.444;6.528;2023-05-09T13:48:34;10.52;;;9.52;;
9848;SDS011;4963;51.444;6.528;2023-05-09T13:51:01;9.57;;;8.48;;
9848;SDS011;4963;51.444;6.528;2023-05-09T13:53:30;8.82;;;7.97;;
9848;SDS011;4963;51.444;6.528;2023-05-09T13:55:57;9.65;;;8.65;;
9848;SDS011;4963;51.444;6.528;2023-05-09T13:58:23;9.20;;;8.30;;
9848;SDS011;4963;51.444;6.528;2023-05-09T14:00:50;9.90;;;8.15;;
9848;SDS011;4963;51.444;6.528;2023-05-09T14:03:18;7.00;;;6.30;;
9848;SDS011;4963;51.444;6.528;2023-05-09T14:05:45;7.07;;;6.38;;
9848;SDS011;4963;51.444;6.528;2023-05-09T14:08:12;6.88;;;6.10;;
9848;SDS011;4963;51.444;6.528;2023-05-09T14:10:38;5.95;;;5.30;;
9848;SDS011;4963;51.444;6.528;2023-05-09T14:13:05;5.45;;;5.00;;
9848;SDS011;4963;51.444;6.528;2023-05-09T14:15:33;5.18;;;4.68;;
9848;SDS011;4963;51.444;6.528;2023-05-09T14:18:00;4.60;;;4.18;;
9848;SDS011;4963;51.444;6.528;2023-05-09T14:20:28;4.38;;;4.07;;
9848;SDS011;4963;51.444;6.528;2023-05-09T14:22:55;5.22;;;4.63;;
9848;SDS011;4963;51.444;6.528;2023-05-09T14:25:24;4.47;;;4.07;;
9848;SDS011;4963;51.444;6.528;2023-05-09T14:27:51;5.50;;;5.00;;
9848;SDS011;4963;51.444;6.528;2023-05-09T14:30:18;5.47;;;4.18;;
9848;SDS011;4963;51.444;6.528;2023-05-09T14:32:45;4.78;;;4.25;;
9848;SDS011;4963;51.444;6.528;2023-05-09T14:35:12;4.55;;;4.15;;
9848;SDS011;4963;51.444;6.528;2023-05-09T14:37:40;3.70;;;3.30;;
9848;SDS011;4963;51.444;6.528;2023-05-09T14:40:07;4.18;;;3.78;;
9848;SDS011;4963;51.444;6.528;2023-05-09T14:42:35;3.90;;;3.40;;
9848;SDS011;4963;51.444;6.528;2023-05-09T14:45:02;3.70;;;3.40;;
9848;SDS011;4963;51.444;6.528;2023-05-09T14:47:31;3.50;;;3.10;;
9848;SDS011;4963;51.444;6.528;2023-05-09T14:49:58;3.15;;;2.85;;
9848;SDS011;4963;51.444;6.528;2023-05-09T14:52:25;3.28;;;2.97;;
9848;SDS011;4963;51.444;6.528;2023-05-09T14:54:54;3.67;;;3.30;;
9848;SDS011;4963;51.444;6.528;2023-05-09T14:57:20;3.47;;;2.97;;
9848;SDS011;4963;51.444;6.528;2023-05-09T14:59:47;4.10;;;2.65;;
9848;SDS011;4963;51.444;6.528;2023-05-09T15:02:14;3.42;;;2.88;;
9848;SDS011;4963;51.444;6.528;2023-05-09T15:04:41;2.92;;;2.72;;
9848;SDS011;4963;51.444;6.528;2023-05-09T15:07:08;3.40;;;2.50;;